Time;durP1;ratioP1;P1;durP2;ratioP2;P2;SDS_P1;SDS_P2;PMS_P1;PMS_P2;Temp;Humidity;BMP_temperature;BMP_pressure;BME280_temperature;BME280_humidity;BME280_pressure;Samples;Min_cycle;Max_cycle;Signal;HPM_P1;HPM_P2
2023/07/01 04:00:18;;;;;;;7.03;4.07;;;17.10;99.90;;;;;;5994154;23;20334;-72
2023/07/01 04:02:51;;;;;;;8.05;3.88;;;17.00;99.90;;;;;;5064838;28;20031;-71
2023/07/01 04:05:18;;;;;;;12.65;4.13;;;16.90;99.90;;;;;;5065839;28;20077;-74
2023/07/01 04:07:48;;;;;;;5.07;4.03;;;17.00;99.90;;;;;;5042014;28;20029;-72
2023/07/01 04:10:14;;;;;;;7.00;3.80;;;16.80;99.90;;;;;;5039786;28;20025;-71
2023/07/01 04:12:41;;;;;;;5.80;3.55;;;16.90;99.90;;;;;;4999839;28;20402;-71
2023/07/01 04:15:12;;;;;;;;;;;16.90;99.90;;;;;;4999566;28;20506;-71
2023/07/01 04:17:42;;;;;;;5.85;3.80;;;16.90;99.90;;;;;;5005578;28;20282;-72
2023/07/01 04:20:09;;;;;;;6.00;3.65;;;17.00;99.90;;;;;;5009974;28;20037;-72
2023/07/01 04:22:35;;;;;;;6.97;3.55;;;17.00;99.90;;;;;;5027050;28;20022;-72
2023/07/01 04:25:01;;;;;;;6.15;4.00;;;16.90;99.90;;;;;;5027175;28;20052;-73
2023/07/01 04:27:26;;;;;;;5.95;3.40;;;17.00;99.90;;;;;;5010077;28;20064;-72
2023/07/01 04:29:52;;;;;;;7.45;3.63;;;17.00;99.90;;;;;;5006645;28;20052;-72
2023/07/01 04:32:17;;;;;;;5.18;3.63;;;17.00;99.90;;;;;;5025990;28;20034;-72
2023/07/01 04:34:44;;;;;;;5.83;3.40;;;17.00;99.90;;;;;;5002628;28;20515;-71
2023/07/01 04:37:09;;;;;;;6.80;3.50;;;17.10;99.90;;;;;;5027022;28;20736;-72
2023/07/01 04:39:35;;;;;;;7.13;4.00;;;17.00;99.90;;;;;;5022426;28;20036;-71
2023/07/01 04:42:01;;;;;;;7.97;4.10;;;17.10;99.90;;;;;;5019863;28;20268;-72
2023/07/01 04:44:26;;;;;;;7.82;3.85;;;17.10;99.90;;;;;;5018326;28;20469;-72
2023/07/01 04:46:52;;;;;;;4.30;3.50;;;17.10;99.90;;;;;;5036246;28;20029;-72
2023/07/01 04:49:18;;;;;;;5.90;2.80;;;17.30;99.90;;;;;;5025522;28;20026;-72
2023/07/01 04:51:43;;;;;;;6.43;3.20;;;17.40;99.90;;;;;;5037980;28;20490;-72
2023/07/01 04:54:09;;;;;;;5.20;2.83;;;17.40;99.90;;;;;;5018874;28;20418;-72
2023/07/01 04:56:35;;;;;;;4.55;2.85;;;17.40;99.90;;;;;;5018951;28;20520;-71
2023/07/01 04:59:01;;;;;;;6.28;3.45;;;17.40;99.90;;;;;;5018700;28;20052;-72
2023/07/01 05:01:27;;;;;;;5.53;2.70;;;17.50;99.90;;;;;;5035557;28;20068;-71
2023/07/01 05:03:53;;;;;;;6.63;2.78;;;17.50;99.90;;;;;;5018539;28;20541;-72
2023/07/01 05:06:18;;;;;;;6.82;2.60;;;17.50;99.90;;;;;;5035911;28;20446;-72
2023/07/01 05:08:45;;;;;;;4.07;2.38;;;17.60;99.90;;;;;;5019076;28;20033;-72
2023/07/01 05:11:10;;;;;;;;;;;17.70;99.90;;;;;;5037798;28;20051;-73
2023/07/01 05:13:36;;;;;;;4.82;2.47;;;17.70;99.90;;;;;;5020117;28;20346;-71
2023/07/01 05:16:01;;;;;;;8.75;2.60;;;17.70;99.90;;;;;;5018560;28;20038;-71
2023/07/01 05:18:27;;;;;;;5.55;2.50;;;17.70;99.90;;;;;;5016889;28;20426;-71
2023/07/01 05:20:52;;;;;;;8.07;2.65;;;17.90;99.90;;;;;;5017478;28;20022;-71
2023/07/01 05:23:18;;;;;;;6.00;2.72;;;17.90;99.90;;;;;;5015969;28;20385;-71
2023/07/01 05:25:43;;;;;;;5.53;2.75;;;17.90;99.90;;;;;;5016533;28;20022;-71
2023/07/01 05:28:09;;;;;;;5.40;2.93;;;18.10;99.90;;;;;;5017850;28;20026;-71
2023/07/01 05:30:35;;;;;;;5.95;2.72;;;18.10;99.90;;;;;;4998508;28;20363;-71
2023/07/01 05:33:00;;;;;;;3.58;2.70;;;18.10;99.90;;;;;;4998467;28;20057;-71
2023/07/01 05:35:26;;;;;;;7.75;2.67;;;18.20;99.90;;;;;;5014845;28;20029;-71
2023/07/01 05:37:54;;;;;;;3.57;2.60;;;18.40;99.90;;;;;;5014896;28;20064;-72
2023/07/01 05:40:20;;;;;;;7.18;2.47;;;18.40;99.90;;;;;;5014747;28;20362;-72
2023/07/01 05:42:45;;;;;;;7.68;3.08;;;18.40;99.90;;;;;;4997464;28;20072;-72
2023/07/01 05:45:11;;;;;;;6.60;2.47;;;18.50;99.90;;;;;;5014830;28;20030;-72
2023/07/01 05:47:37;;;;;;;6.32;2.55;;;18.50;99.90;;;;;;4997049;28;20029;-71
2023/07/01 05:50:03;;;;;;;6.63;2.70;;;18.60;99.90;;;;;;5014837;28;20041;-71
2023/07/01 05:52:29;;;;;;;4.75;2.58;;;18.80;99.90;;;;;;4996885;28;20026;-72
2023/07/01 05:54:55;;;;;;;8.23;2.78;;;18.90;99.90;;;;;;5014584;28;20096;-72
2023/07/01 05:57:20;;;;;;;5.75;2.35;;;19.00;99.90;;;;;;5014816;28;20064;-72
2023/07/01 05:59:46;;;;;;;5.70;2.53;;;19.00;99.90;;;;;;5014767;28;20545;-72
2023/07/01 06:02:11;;;;;;;7.68;2.50;;;19.20;99.90;;;;;;4996787;28;20032;-71
2023/07/01 06:04:37;;;;;;;5.22;2.90;;;19.30;99.90;;;;;;4997302;28;20034;-71
2023/07/01 06:07:03;;;;;;;8.45;3.25;;;19.30;99.90;;;;;;5015595;28;20026;-71
2023/07/01 06:09:28;;;;;;;4.85;2.53;;;19.40;99.90;;;;;;4998602;28;20092;-72
2023/07/01 06:11:54;;;;;;;4.20;2.45;;;19.50;99.90;;;;;;5014515;28;20510;-71
2023/07/01 06:14:19;;;;;;;8.82;2.70;;;19.50;99.90;;;;;;5014482;28;20041;-72
2023/07/01 06:16:45;;;;;;;7.15;2.65;;;19.50;99.90;;;;;;5014822;28;20029;-72
2023/07/01 06:19:10;;;;;;;5.32;2.92;;;19.60;99.90;;;;;;5014416;28;20597;-72
2023/07/01 06:21:36;;;;;;;4.13;2.40;;;19.70;99.90;;;;;;4997242;28;20487;-72
2023/07/01 06:24:02;;;;;;;4.60;2.85;;;19.70;99.90;;;;;;5013092;28;20029;-72
2023/07/01 06:26:27;;;;;;;7.32;3.00;;;19.60;99.90;;;;;;5015062;28;20080;-72
2023/07/01 06:28:53;;;;;;;6.88;2.65;;;19.60;99.90;;;;;;5014964;28;20053;-72
2023/07/01 06:31:18;;;;;;;6.55;2.83;;;19.60;99.90;;;;;;5015313;28;20030;-72
2023/07/01 06:33:45;;;;;;;4.45;2.35;;;19.50;99.90;;;;;;5014313;28;20074;-72
2023/07/01 06:36:10;;;;;;;5.13;2.55;;;19.40;99.90;;;;;;4999033;28;20471;-72
2023/07/01 06:38:36;;;;;;;8.32;2.78;;;19.50;99.90;;;;;;5000005;28;20022;-72
2023/07/01 06:41:01;;;;;;;4.82;2.33;;;19.40;99.90;;;;;;5018525;28;20120;-71
2023/07/01 06:43:27;;;;;;;6.15;2.58;;;19.40;99.90;;;;;;5014738;28;20064;-72
2023/07/01 06:45:54;;;;;;;7.28;2.70;;;19.40;99.90;;;;;;4997312;28;20475;-71
2023/07/01 06:48:20;;;;;;;5.72;2.45;;;19.50;99.90;;;;;;5014443;28;20041;-72
2023/07/01 06:50:46;;;;;;;7.88;2.53;;;19.60;99.90;;;;;;4996887;28;20037;-71
2023/07/01 06:53:14;;;;;;;8.15;2.90;;;19.80;99.90;;;;;;5023431;28;20034;-72
2023/07/01 06:55:40;;;;;;;5.55;2.38;;;19.90;99.90;;;;;;5028399;28;20362;-72
2023/07/01 06:58:05;;;;;;;7.82;2.22;;;20.00;99.90;;;;;;5017401;28;20021;-72
2023/07/01 07:00:31;;;;;;;6.10;3.40;;;20.00;99.90;;;;;;5016089;28;20466;-73
2023/07/01 07:02:56;;;;;;;7.22;2.75;;;20.10;99.90;;;;;;5016016;28;20025;-71
2023/07/01 07:05:22;;;;;;;5.00;2.55;;;20.20;99.90;;;;;;5034010;28;20038;-72
2023/07/01 07:07:48;;;;;;;7.95;2.10;;;20.30;99.90;;;;;;5033979;28;20029;-72
2023/07/01 07:10:13;;;;;;;7.25;2.95;;;20.40;99.90;;;;;;5033412;28;20032;-72
2023/07/01 07:12:39;;;;;;;6.40;2.50;;;20.60;99.90;;;;;;5015815;28;20021;-72
2023/07/01 07:15:05;;;;;;;7.47;2.40;;;20.60;99.90;;;;;;5033616;28;20040;-72
2023/07/01 07:17:32;;;;;;;;;;;20.60;99.90;;;;;;5016571;28;20092;-72
2023/07/01 07:19:58;;;;;;;4.15;2.55;;;20.80;99.90;;;;;;5034733;28;19909;-72
2023/07/01 07:22:23;;;;;;;7.32;2.38;;;21.00;99.90;;;;;;5034034;28;20021;-72
2023/07/01 07:24:49;;;;;;;7.28;3.60;;;21.10;99.90;;;;;;5033387;28;20152;-72
2023/07/01 07:27:14;;;;;;;10.35;2.90;;;21.10;99.90;;;;;;5015944;28;20030;-73
2023/07/01 07:29:40;;;;;;;6.03;2.47;;;21.20;99.90;;;;;;5034575;28;20382;-71
2023/07/01 07:32:06;;;;;;;4.30;2.45;;;21.30;99.90;;;;;;5018576;28;20120;-70
2023/07/01 07:34:32;;;;;;;5.03;2.65;;;21.30;99.50;;;;;;5036146;28;20502;-72
2023/07/01 07:36:57;;;;;;;6.97;2.65;;;21.50;99.60;;;;;;5012845;28;20045;-72
2023/07/01 07:39:23;;;;;;;7.07;2.83;;;21.50;99.00;;;;;;5008263;28;20030;-71
2023/07/01 07:41:49;;;;;;;4.78;2.85;;;21.60;98.40;;;;;;5018152;28;20076;-71
2023/07/01 07:44:15;;;;;;;5.57;2.58;;;21.70;98.80;;;;;;5023026;28;20113;-72
2023/07/01 07:46:42;;;;;;;9.40;2.78;;;21.90;98.30;;;;;;4998276;28;20042;-71
2023/07/01 07:49:08;;;;;;;6.07;2.80;;;22.00;97.90;;;;;;5014086;28;20513;-72
2023/07/01 07:51:33;;;;;;;6.75;3.55;;;22.50;97.80;;;;;;5033006;28;20104;-73
2023/07/01 07:53:59;;;;;;;10.25;4.75;;;23.30;96.50;;;;;;5036999;28;20041;-72
2023/07/01 07:56:24;;;;;;;;;;;23.90;95.50;;;;;;5037990;28;20049;-72
2023/07/01 07:58:50;;;;;;;9.93;4.57;;;24.00;95.00;;;;;;5019248;28;19909;-72
2023/07/01 08:01:15;;;;;;;;;;;24.10;94.70;;;;;;5037553;28;20538;-72
2023/07/01 08:03:41;;;;;;;9.13;4.93;;;23.70;95.00;;;;;;5019212;28;19912;-73
2023/07/01 08:06:07;;;;;;;;;;;23.40;95.20;;;;;;5017087;28;20057;-73
2023/07/01 08:08:33;;;;;;;9.57;5.65;;;23.30;95.50;;;;;;5037011;28;19931;-74
2023/07/01 08:10:59;;;;;;;15.05;5.43;;;23.20;95.70;;;;;;5019318;28;20030;-74
2023/07/01 08:13:25;;;;;;;10.00;5.65;;;23.50;95.60;;;;;;5019022;28;20104;-73
2023/07/01 08:15:51;;;;;;;14.88;6.80;;;24.70;94.40;;;;;;5018236;28;20478;-72
2023/07/01 08:18:20;;;;;;;;;;;25.60;93.20;;;;;;5012499;28;20083;-72
2023/07/01 08:20:46;;;;;;;10.05;5.68;;;26.60;91.70;;;;;;5004527;28;19931;-71
2023/07/01 08:23:13;;;;;;;8.60;5.97;;;27.40;90.40;;;;;;5000047;28;20030;-72
2023/07/01 08:25:42;;;;;;;10.93;6.50;;;27.70;89.10;;;;;;5029681;28;20026;-72
2023/07/01 08:28:08;;;;;;;11.65;5.70;;;28.00;87.70;;;;;;5023247;28;20037;-71
2023/07/01 08:30:33;;;;;;;9.73;5.38;;;27.00;87.30;;;;;;5009168;28;20029;-71
2023/07/01 08:32:59;;;;;;;7.45;5.13;;;27.20;88.00;;;;;;5017894;28;20140;-72
2023/07/01 08:35:24;;;;;;;9.02;4.70;;;28.50;85.70;;;;;;5035641;28;20071;-72
2023/07/01 08:37:50;;;;;;;9.57;4.43;;;29.20;84.20;;;;;;5026761;28;20097;-72
2023/07/01 08:40:16;;;;;;;10.13;4.22;;;29.30;83.00;;;;;;5020086;28;20044;-71
2023/07/01 08:42:48;;;;;;;9.05;3.90;;;29.30;81.60;;;;;;5011342;28;20036;-71
2023/07/01 08:45:14;;;;;;;10.80;3.95;;;29.60;80.40;;;;;;5018751;28;20490;-72
2023/07/01 08:47:40;;;;;;;7.32;3.70;;;30.00;78.80;;;;;;5014853;28;20120;-72
2023/07/01 08:50:08;;;;;;;9.98;3.95;;;30.20;78.00;;;;;;5017934;28;20029;-72
2023/07/01 08:52:41;;;;;;;8.75;3.70;;;31.30;76.50;;;;;;5004787;28;20501;-71
2023/07/01 08:55:09;;;;;;;10.63;4.03;;;31.10;74.60;;;;;;5009933;28;20137;-71
2023/07/01 08:57:37;;;;;;;9.15;3.90;;;30.30;74.20;;;;;;5015298;28;20128;-72
2023/07/01 09:00:03;;;;;;;10.32;4.43;;;29.30;74.00;;;;;;5028998;28;20390;-71
2023/07/01 09:02:29;;;;;;;11.73;4.35;;;28.30;75.00;;;;;;5037011;28;20116;-71
2023/07/01 09:04:55;;;;;;;7.38;3.60;;;27.90;76.20;;;;;;5033978;28;20026;-71
2023/07/01 09:07:21;;;;;;;5.88;3.10;;;27.40;77.70;;;;;;5010278;28;20662;-72
2023/07/01 09:09:46;;;;;;;7.10;3.47;;;27.70;78.30;;;;;;5020308;28;20037;-71
2023/07/01 09:12:12;;;;;;;8.32;3.53;;;28.90;75.50;;;;;;5040624;28;20120;-73
2023/07/01 09:14:56;;;;;;;6.70;3.03;;;28.60;75.00;;;;;;5025071;28;20037;-72
2023/07/01 09:17:30;;;;;;;6.75;3.85;;;28.20;75.50;;;;;;5037338;28;20032;-70
2023/07/01 09:19:59;;;;;;;8.43;3.58;;;27.00;77.30;;;;;;5022910;28;20076;-73
2023/07/01 09:22:25;;;;;;;9.05;3.28;;;26.10;78.90;;;;;;5032605;28;20017;-73
2023/07/01 09:24:50;;;;;;;5.53;2.70;;;26.00;80.40;;;;;;5034939;28;20486;-71
2023/07/01 09:27:16;;;;;;;6.80;2.50;;;25.90;81.10;;;;;;5012589;28;20076;-72
2023/07/01 09:29:42;;;;;;;;;;;26.20;81.00;;;;;;5016602;28;20030;-72
2023/07/01 09:32:08;;;;;;;6.00;2.70;;;26.20;80.90;;;;;;5030901;28;19912;-72
2023/07/01 09:34:55;;;;;;;4.25;2.22;;;25.80;81.60;;;;;;5021027;28;20030;-71
2023/07/01 09:37:22;;;;;;;5.68;2.40;;;25.20;82.80;;;;;;5024430;28;20500;-72
2023/07/01 09:39:47;;;;;;;6.07;2.90;;;25.80;80.90;;;;;;5009881;28;20025;-72
2023/07/01 09:42:13;;;;;;;;;;;26.50;79.50;;;;;;5007017;28;20017;-72
2023/07/01 09:44:39;;;;;;;3.08;2.15;;;27.20;79.00;;;;;;5029741;28;19920;-72
2023/07/01 09:47:05;;;;;;;5.25;2.60;;;27.20;78.80;;;;;;5004718;28;20096;-72
2023/07/01 09:49:40;;;;;;;4.53;2.05;;;26.90;79.30;;;;;;5024870;28;20087;-73
2023/07/01 09:52:06;;;;;;;5.40;2.40;;;26.80;78.90;;;;;;5006761;28;20037;-68
2023/07/01 09:54:31;;;;;;;;;;;26.40;79.50;;;;;;5024257;28;20013;-71
2023/07/01 09:56:59;;;;;;;7.30;2.67;;;26.40;80.20;;;;;;5016117;28;19940;-73
2023/07/01 09:59:25;;;;;;;5.60;2.35;;;26.80;80.00;;;;;;5024370;28;20029;-72
2023/07/01 10:01:55;;;;;;;5.80;2.80;;;27.00;78.40;;;;;;5022541;28;20414;-72
2023/07/01 10:04:29;;;;;;;6.72;2.70;;;27.10;79.20;;;;;;5021189;28;20040;-73
2023/07/01 10:06:55;;;;;;;4.40;2.28;;;27.00;78.60;;;;;;5009177;28;20022;-72
2023/07/01 10:09:23;;;;;;;;;;;26.20;79.20;;;;;;5004774;28;20076;-72
2023/07/01 10:11:53;;;;;;;6.95;2.65;;;26.20;80.80;;;;;;5002266;28;20439;-71
2023/07/01 10:14:22;;;;;;;4.80;2.25;;;26.00;80.00;;;;;;5008737;28;20133;-72
2023/07/01 10:16:48;;;;;;;5.72;2.38;;;25.50;80.90;;;;;;5036200;23;20473;-69
2023/07/01 10:19:27;;;;;;;;;;;25.20;81.30;;;;;;5034402;28;20068;-68
2023/07/01 10:21:53;;;;;;;3.78;1.95;;;25.10;81.50;;;;;;5030601;28;19912;-70
2023/07/01 10:24:40;;;;;;;4.30;2.03;;;25.00;82.70;;;;;;5024087;28;20044;-68
2023/07/01 10:27:05;;;;;;;8.25;2.60;;;25.40;82.70;;;;;;5033105;28;20112;-67
2023/07/01 10:29:33;;;;;;;;;;;25.30;81.80;;;;;;5023912;28;20109;-68
2023/07/01 10:32:11;;;;;;;6.65;2.70;;;25.10;82.60;;;;;;5030325;28;19912;-69
2023/07/01 10:34:55;;;;;;;9.55;3.22;;;25.30;84.00;;;;;;5033380;28;20619;-66
2023/07/01 10:37:27;;;;;;;7.30;3.08;;;25.40;81.60;;;;;;5008355;28;20026;-66
2023/07/01 10:39:54;;;;;;;5.93;2.65;;;25.40;81.40;;;;;;5029816;28;20405;-67
2023/07/01 10:42:33;;;;;;;7.18;3.22;;;25.10;81.40;;;;;;5022042;28;20022;-68
2023/07/01 10:45:11;;;;;;;8.13;3.20;;;25.10;82.20;;;;;;5034471;28;20029;-70
2023/07/01 10:47:43;;;;;;;5.75;2.92;;;25.00;83.00;;;;;;5029828;28;20026;-68
2023/07/01 10:50:19;;;;;;;5.22;2.97;;;24.90;82.20;;;;;;5029108;28;20505;-67
2023/07/01 10:52:57;;;;;;;8.93;3.17;;;24.60;83.50;;;;;;5024244;28;20073;-68
2023/07/01 10:55:40;;;;;;;32.80;4.43;;;24.30;83.60;;;;;;5004210;28;20029;-68
2023/07/01 10:58:23;;;;;;;7.95;3.30;;;24.30;84.40;;;;;;5028901;28;20026;-70
2023/07/01 11:00:56;;;;;;;7.75;3.25;;;24.40;84.60;;;;;;5019857;28;20072;-69
2023/07/01 11:03:36;;;;;;;10.70;3.50;;;24.60;84.80;;;;;;5033719;28;20026;-68
2023/07/01 11:06:02;;;;;;;9.18;3.40;;;24.90;85.50;;;;;;5032948;28;20026;-67
2023/07/01 11:08:30;;;;;;;7.85;2.72;;;24.90;86.00;;;;;;5017242;28;20025;-67
2023/07/01 11:10:56;;;;;;;8.80;3.35;;;25.00;85.10;;;;;;5033187;28;20478;-69
2023/07/01 11:13:23;;;;;;;9.20;2.90;;;25.20;84.90;;;;;;5032287;28;20053;-67
2023/07/01 11:16:09;;;;;;;5.72;2.65;;;25.50;85.00;;;;;;5016136;28;20028;-67
2023/07/01 11:18:43;;;;;;;3.90;2.15;;;25.70;83.60;;;;;;5030114;28;20076;-67
2023/07/01 11:21:10;;;;;;;7.25;2.58;;;25.60;83.90;;;;;;5035752;28;20026;-69
2023/07/01 11:23:37;;;;;;;5.68;2.45;;;25.20;85.50;;;;;;5033041;28;20018;-70
2023/07/01 11:26:02;;;;;;;4.38;2.60;;;25.10;85.30;;;;;;5020750;28;20025;-71
2023/07/01 11:28:37;;;;;;;;;;;25.00;87.10;;;;;;5029916;28;20742;-72
2023/07/01 11:31:21;;;;;;;3.53;2.17;;;25.00;86.90;;;;;;5024052;28;19959;-67
2023/07/01 11:33:51;;;;;;;6.53;2.40;;;24.80;85.50;;;;;;5029111;28;20030;-65
2023/07/01 11:36:18;;;;;;;6.32;2.15;;;24.70;87.60;;;;;;5036247;28;20025;-66
2023/07/01 11:38:46;;;;;;;9.48;2.55;;;24.70;86.40;;;;;;5018093;28;20083;-66
2023/07/01 11:41:23;;;;;;;5.38;2.35;;;24.70;85.80;;;;;;5036598;28;20105;-67
2023/07/01 11:43:49;;;;;;;4.78;2.40;;;24.70;86.30;;;;;;5036734;28;20022;-67
2023/07/01 11:46:14;;;;;;;;;;;24.70;85.60;;;;;;5019293;28;20025;-67
2023/07/01 11:48:41;;;;;;;4.32;2.10;;;24.60;85.90;;;;;;5033186;28;20305;-67
2023/07/01 11:51:06;;;;;;;5.38;2.33;;;24.50;86.30;;;;;;5025171;28;20100;-69
2023/07/01 11:53:32;;;;;;;;;;;24.50;86.30;;;;;;5036588;28;20056;-66
2023/07/01 11:55:58;;;;;;;4.40;1.70;;;24.30;85.90;;;;;;5029173;28;19952;-67
2023/07/01 11:58:37;;;;;;;4.15;1.85;;;24.00;86.70;;;;;;5035853;28;20025;-69
2023/07/01 12:01:03;;;;;;;3.35;2.10;;;23.90;87.30;;;;;;5018388;28;20036;-74
2023/07/01 12:03:33;;;;;;;5.88;2.08;;;24.00;87.10;;;;;;5018368;28;20118;-74
2023/07/01 12:05:59;;;;;;;4.13;2.17;;;24.20;87.70;;;;;;5018144;28;20029;-69
2023/07/01 12:08:24;;;;;;;;;;;24.30;86.70;;;;;;5015014;28;20068;-71
2023/07/01 12:10:50;;;;;;;5.38;2.10;;;24.60;86.70;;;;;;5033832;28;20328;-71
2023/07/01 12:13:31;;;;;;;;;;;24.60;86.10;;;;;;5018550;28;20053;-70
2023/07/01 12:15:58;;;;;;;5.10;2.03;;;24.30;85.90;;;;;;5016136;28;19905;-72
2023/07/01 12:18:29;;;;;;;4.63;1.92;;;24.40;86.80;;;;;;4999308;28;20045;-72
2023/07/01 12:20:56;;;;;;;3.17;2.00;;;24.40;86.90;;;;;;4998829;28;20041;-72
2023/07/01 12:23:22;;;;;;;3.10;2.45;;;24.30;87.30;;;;;;5013298;28;20036;-72
2023/07/01 12:25:47;;;;;;;6.43;2.55;;;24.30;87.60;;;;;;5017251;28;20022;-73
2023/07/01 12:28:13;;;;;;;;;;;24.30;86.90;;;;;;5018528;28;20075;-72
2023/07/01 12:30:38;;;;;;;3.88;2.13;;;24.30;87.40;;;;;;5036002;28;20008;-66
2023/07/01 12:33:04;;;;;;;;;;;24.40;87.10;;;;;;5036044;28;20028;-70
2023/07/01 12:35:29;;;;;;;4.15;2.38;;;24.30;87.30;;;;;;5018362;28;19905;-70
2023/07/01 12:37:56;;;;;;;;;;;24.40;87.20;;;;;;5036095;28;20033;-67
2023/07/01 12:40:25;;;;;;;3.00;1.93;;;24.50;86.80;;;;;;5035616;28;19913;-67
2023/07/01 12:42:51;;;;;;;3.22;2.20;;;24.70;85.70;;;;;;5029916;28;20291;-67
2023/07/01 12:45:16;;;;;;;;;;;24.40;85.60;;;;;;5023515;28;20486;-66
2023/07/01 12:47:43;;;;;;;4.05;2.10;;;24.30;86.50;;;;;;5028318;28;19909;-66
2023/07/01 12:50:09;;;;;;;4.20;1.80;;;24.40;87.40;;;;;;5035120;28;20536;-67
2023/07/01 12:52:35;;;;;;;3.38;1.98;;;24.30;86.60;;;;;;5016490;28;20049;-65
2023/07/01 12:55:01;;;;;;;;;;;24.30;87.10;;;;;;5010912;28;20338;-68
2023/07/01 12:57:26;;;;;;;3.35;2.03;;;24.40;87.10;;;;;;5016240;28;20412;-68
2023/07/01 12:59:54;;;;;;;;;;;24.40;87.30;;;;;;5035259;28;20026;-67
2023/07/01 13:02:20;;;;;;;3.90;1.58;;;24.40;87.60;;;;;;5034676;28;20365;-68
2023/07/01 13:04:58;;;;;;;2.97;1.73;;;24.70;87.90;;;;;;5032190;28;20022;-66
2023/07/01 13:07:24;;;;;;;3.78;1.70;;;24.90;87.20;;;;;;5028238;28;20501;-66
2023/07/01 13:09:50;;;;;;;2.65;1.63;;;24.90;86.70;;;;;;5033892;28;20041;-68
2023/07/01 13:12:17;;;;;;;;;;;24.70;86.60;;;;;;5029435;28;20091;-67
2023/07/01 13:14:43;;;;;;;3.88;1.70;;;24.70;87.10;;;;;;5019956;28;19906;-67
2023/07/01 13:17:09;;;;;;;;;;;24.60;87.20;;;;;;5000130;28;20398;-67
2023/07/01 13:19:34;;;;;;;4.18;1.80;;;24.40;87.30;;;;;;5026701;28;20020;-65
2023/07/01 13:22:00;;;;;;;;;;;24.40;88.20;;;;;;5030698;28;20032;-67
2023/07/01 13:24:26;;;;;;;2.92;1.70;;;24.50;88.50;;;;;;5008984;28;19909;-64
2023/07/01 13:26:54;;;;;;;;;;;24.50;88.10;;;;;;5021527;28;20037;-67
2023/07/01 13:29:20;;;;;;;3.83;1.90;;;24.60;88.10;;;;;;5034372;28;19905;-68
2023/07/01 13:31:47;;;;;;;6.03;1.70;;;24.80;88.70;;;;;;5013898;28;20097;-68
2023/07/01 13:34:15;;;;;;;2.92;1.98;;;25.00;87.80;;;;;;5017384;28;20152;-69
2023/07/01 13:36:43;;;;;;;4.13;1.95;;;25.00;88.90;;;;;;5029798;28;20033;-67
2023/07/01 13:39:31;;;;;;;3.72;2.00;;;25.00;87.40;;;;;;5028138;28;20069;-63
2023/07/01 13:42:00;;;;;;;5.95;1.88;;;24.90;87.90;;;;;;5023519;28;20033;-62
2023/07/01 13:44:25;;;;;;;6.88;1.67;;;25.00;88.30;;;;;;5014844;28;20105;-63
2023/07/01 13:46:53;;;;;;;;;;;24.90;88.60;;;;;;5026846;28;20124;-62
2023/07/01 13:49:28;;;;;;;7.18;1.92;;;24.70;89.40;;;;;;5029447;28;20063;-62
2023/07/01 13:51:54;;;;;;;3.22;1.95;;;24.60;89.40;;;;;;5014238;28;20025;-60
2023/07/01 13:54:23;;;;;;;4.20;1.73;;;24.40;89.80;;;;;;5005518;28;20049;-63
2023/07/01 13:56:54;;;;;;;6.32;1.50;;;24.30;89.90;;;;;;5024077;28;20026;-63
2023/07/01 13:59:21;;;;;;;3.10;1.42;;;24.10;90.30;;;;;;5001384;28;20112;-63
2023/07/01 14:02:06;;;;;;;5.68;1.63;;;24.10;90.60;;;;;;5014040;28;20018;-65
2023/07/01 14:04:35;;;;;;;4.68;1.70;;;24.00;90.90;;;;;;5029467;28;20176;-63
2023/07/01 14:07:02;;;;;;;7.07;1.90;;;24.00;91.40;;;;;;5026833;28;20034;-63
2023/07/01 14:09:30;;;;;;;6.80;1.63;;;23.90;91.60;;;;;;5032493;28;20029;-63
2023/07/01 14:11:56;;;;;;;2.97;1.63;;;23.90;91.70;;;;;;5007147;28;20025;-61
2023/07/01 14:14:26;;;;;;;2.53;1.52;;;24.00;91.90;;;;;;5034235;28;20029;-63
2023/07/01 14:16:53;;;;;;;2.42;1.48;;;24.10;92.00;;;;;;5022574;28;20052;-63
2023/07/01 14:19:19;;;;;;;3.53;2.08;;;23.90;92.10;;;;;;5033391;28;20032;-64
2023/07/01 14:21:49;;;;;;;5.15;1.27;;;23.70;92.40;;;;;;5033384;28;20025;-63
2023/07/01 14:24:23;;;;;;;3.88;1.50;;;23.60;92.80;;;;;;5033253;28;20076;-63
2023/07/01 14:26:51;;;;;;;4.45;1.40;;;23.60;92.90;;;;;;5033306;28;20037;-62
2023/07/01 14:29:17;;;;;;;2.90;1.30;;;23.50;93.00;;;;;;5033313;28;20029;-64
2023/07/01 14:31:47;;;;;;;2.75;1.40;;;23.50;93.40;;;;;;5033694;28;20057;-63
2023/07/01 14:34:13;;;;;;;4.55;1.40;;;23.50;93.60;;;;;;5033181;28;20080;-62
2023/07/01 14:36:45;;;;;;;3.58;1.25;;;23.60;93.60;;;;;;5033301;28;20029;-64
2023/07/01 14:39:11;;;;;;;4.35;1.50;;;23.60;93.60;;;;;;5002026;28;20032;-64
2023/07/01 14:41:42;;;;;;;4.05;1.60;;;23.60;93.80;;;;;;5018083;28;20033;-62
2023/07/01 14:44:18;;;;;;;2.10;1.40;;;23.50;93.80;;;;;;5030015;28;20036;-64
2023/07/01 14:46:43;;;;;;;2.55;1.77;;;23.50;93.80;;;;;;5015448;28;20451;-63
2023/07/01 14:49:09;;;;;;;;;;;23.50;93.80;;;;;;5033518;28;20033;-63
2023/07/01 14:51:38;;;;;;;4.45;1.60;;;23.60;93.90;;;;;;5029063;28;20004;-64
2023/07/01 14:54:04;;;;;;;2.60;1.40;;;23.70;93.50;;;;;;5033104;28;20097;-64
2023/07/01 14:56:30;;;;;;;5.18;1.17;;;23.60;93.70;;;;;;5032508;28;20037;-66
2023/07/01 14:58:57;;;;;;;4.40;2.33;;;23.60;93.60;;;;;;5033064;28;20029;-66
2023/07/01 15:01:23;;;;;;;4.43;1.40;;;23.70;93.80;;;;;;5026396;28;20122;-66
2023/07/01 15:03:49;;;;;;;2.47;1.77;;;23.60;93.90;;;;;;5027977;28;20489;-65
2023/07/01 15:06:15;;;;;;;3.45;1.60;;;23.70;94.20;;;;;;5030257;28;20018;-66
2023/07/01 15:08:42;;;;;;;;;;;23.60;94.50;;;;;;5022062;28;20027;-66
2023/07/01 15:11:08;;;;;;;3.95;1.33;;;23.50;94.70;;;;;;5031144;28;19905;-65
2023/07/01 15:13:34;;;;;;;;;;;23.60;94.80;;;;;;5028940;28;20030;-69
2023/07/01 15:16:01;;;;;;;1.88;1.02;;;23.60;95.10;;;;;;5026917;28;19916;-69
2023/07/01 15:18:26;;;;;;;1.67;1.00;;;23.60;95.10;;;;;;5014907;28;20037;-69
2023/07/01 15:20:53;;;;;;;1.70;1.10;;;23.50;95.10;;;;;;5031967;28;20033;-67
2023/07/01 15:23:18;;;;;;;4.47;1.88;;;23.40;95.50;;;;;;5026481;28;20116;-68
2023/07/01 15:25:44;;;;;;;4.63;1.15;;;23.50;95.50;;;;;;5028645;28;20093;-68
2023/07/01 15:28:09;;;;;;;;;;;23.60;95.20;;;;;;5013312;28;20026;-67
2023/07/01 15:30:35;;;;;;;4.60;1.20;;;23.80;95.30;;;;;;5015097;28;19905;-68
2023/07/01 15:33:01;;;;;;;;;;;23.90;95.10;;;;;;5031002;28;20112;-67
2023/07/01 15:35:26;;;;;;;4.00;1.70;;;23.90;95.10;;;;;;5030532;28;20004;-68
2023/07/01 15:37:52;;;;;;;;;;;23.90;95.00;;;;;;5032479;28;20041;-69
2023/07/01 15:40:17;;;;;;;3.15;1.55;;;24.00;95.00;;;;;;5014925;28;19916;-69
2023/07/01 15:42:44;;;;;;;;;;;23.80;95.00;;;;;;5015341;28;20017;-70
2023/07/01 15:45:10;;;;;;;2.78;1.40;;;23.70;95.20;;;;;;5017240;28;19933;-70
2023/07/01 15:47:35;;;;;;;4.80;1.40;;;23.70;95.20;;;;;;5007481;28;20482;-70
2023/07/01 15:50:01;;;;;;;2.47;1.40;;;23.60;95.30;;;;;;5031509;28;20037;-70
2023/07/01 15:52:26;;;;;;;4.68;1.40;;;23.60;95.50;;;;;;5017914;28;20029;-71
2023/07/01 15:54:52;;;;;;;;;;;23.60;95.70;;;;;;5037513;28;20044;-70
2023/07/01 15:57:17;;;;;;;7.85;1.60;;;23.70;95.30;;;;;;5019022;28;19905;-68
2023/07/01 15:59:43;;;;;;;2.67;1.40;;;23.70;95.50;;;;;;5036655;28;20025;-70
2023/07/01 16:02:08;;;;;;;;;;;23.70;95.50;;;;;;5036861;28;20037;-72
2023/07/01 16:04:38;;;;;;;2.25;1.40;;;23.60;95.60;;;;;;5015434;28;20003;-70
2023/07/01 16:07:18;;;;;;;4.47;1.40;;;23.60;96.00;;;;;;5016575;28;20037;-68
2023/07/01 16:09:47;;;;;;;4.75;1.77;;;23.60;96.00;;;;;;5007150;28;20025;-69
2023/07/01 16:12:30;;;;;;;2.72;1.50;;;23.40;96.10;;;;;;5036033;28;20057;-67
2023/07/01 16:15:04;;;;;;;3.05;1.52;;;23.40;96.30;;;;;;5018756;28;20030;-67
2023/07/01 16:17:30;;;;;;;6.60;1.58;;;23.40;96.50;;;;;;5031103;28;20041;-67
2023/07/01 16:19:55;;;;;;;;;;;23.20;96.90;;;;;;5036912;28;20021;-66
2023/07/01 16:22:23;;;;;;;3.40;1.30;;;23.10;97.40;;;;;;5037311;28;19928;-64
2023/07/01 16:24:54;;;;;;;2.72;1.27;;;23.20;97.50;;;;;;5034898;28;20356;-66
2023/07/01 16:27:22;;;;;;;2.25;1.20;;;23.20;97.60;;;;;;5032925;28;20026;-67
2023/07/01 16:29:53;;;;;;;3.55;1.13;;;23.10;97.90;;;;;;5016683;28;20026;-68
2023/07/01 16:32:23;;;;;;;2.45;1.35;;;23.10;98.30;;;;;;5016365;28;20034;-70
2023/07/01 16:34:50;;;;;;;2.20;1.48;;;22.90;99.20;;;;;;5027312;28;20100;-65
2023/07/01 16:37:17;;;;;;;2.72;0.95;;;22.80;99.50;;;;;;5032576;28;20037;-65
2023/07/01 16:39:55;;;;;;;3.28;1.00;;;22.80;99.90;;;;;;5026171;28;20022;-65
2023/07/01 16:42:22;;;;;;;2.92;1.50;;;22.60;99.90;;;;;;5035676;28;20014;-65
2023/07/01 16:44:52;;;;;;;4.30;1.25;;;22.50;99.90;;;;;;5035669;28;20022;-65
2023/07/01 16:47:24;;;;;;;2.05;1.17;;;22.30;99.90;;;;;;5033161;28;20078;-64
2023/07/01 16:49:57;;;;;;;4.05;1.20;;;22.40;99.90;;;;;;5016216;28;20356;-66
2023/07/01 16:52:28;;;;;;;1.88;1.35;;;22.50;99.90;;;;;;5027268;28;20060;-65
2023/07/01 16:54:55;;;;;;;1.48;1.23;;;22.40;99.90;;;;;;5018122;28;20116;-65
2023/07/01 16:57:21;;;;;;;3.47;1.60;;;22.40;99.90;;;;;;5035291;28;20474;-65